sensor_id;sensor_type;location;lat;lon;timestamp;P1;durP1;ratioP1;P2;durP2;ratioP2
42018;SDS011;27703;51.980;5.848;2022-08-03T00:01:36;2.42;;;0.50;;
42018;SDS011;27703;51.980;5.848;2022-08-03T00:04:04;3.00;;;0.43;;
42018;SDS011;27703;51.980;5.848;2022-08-03T00:06:30;1.75;;;0.20;;
42018;SDS011;27703;51.980;5.848;2022-08-03T00:08:56;3.28;;;0.50;;
42018;SDS011;27703;51.980;5.848;2022-08-03T00:11:21;2.28;;;0.40;;
42018;SDS011;27703;51.980;5.848;2022-08-03T00:13:47;2.22;;;0.30;;
42018;SDS011;27703;51.980;5.848;2022-08-03T00:16:13;4.85;;;0.52;;
42018;SDS011;27703;51.980;5.848;2022-08-03T00:18:38;1.88;;;0.30;;
42018;SDS011;27703;51.980;5.848;2022-08-03T00:21:04;1.75;;;0.30;;
42018;SDS011;27703;51.980;5.848;2022-08-03T00:23:30;3.75;;;0.35;;
42018;SDS011;27703;51.980;5.848;2022-08-03T00:25:56;1.90;;;0.30;;
42018;SDS011;27703;51.980;5.848;2022-08-03T00:28:21;3.42;;;0.40;;
42018;SDS011;27703;51.980;5.848;2022-08-03T00:30:47;3.63;;;0.30;;
42018;SDS011;27703;51.980;5.848;2022-08-03T00:33:13;2.75;;;0.30;;
42018;SDS011;27703;51.980;5.848;2022-08-03T00:35:38;2.63;;;0.30;;
42018;SDS011;27703;51.980;5.848;2022-08-03T00:38:04;1.33;;;0.30;;
42018;SDS011;27703;51.980;5.848;2022-08-03T00:40:30;1.55;;;0.20;;
42018;SDS011;27703;51.980;5.848;2022-08-03T00:42:56;2.47;;;0.30;;
42018;SDS011;27703;51.980;5.848;2022-08-03T00:45:24;2.10;;;0.30;;
42018;SDS011;27703;51.980;5.848;2022-08-03T00:48:09;2.75;;;0.30;;
42018;SDS011;27703;51.980;5.848;2022-08-03T00:50:41;1.88;;;0.40;;
42018;SDS011;27703;51.980;5.848;2022-08-03T00:53:08;2.53;;;0.30;;
42018;SDS011;27703;51.980;5.848;2022-08-03T00:55:38;1.50;;;0.30;;
42018;SDS011;27703;51.980;5.848;2022-08-03T00:58:05;1.27;;;0.20;;
42018;SDS011;27703;51.980;5.848;2022-08-03T01:00:32;2.90;;;0.52;;
42018;SDS011;27703;51.980;5.848;2022-08-03T01:03:00;1.17;;;0.20;;
42018;SDS011;27703;51.980;5.848;2022-08-03T01:05:27;1.92;;;0.30;;
42018;SDS011;27703;51.980;5.848;2022-08-03T01:10:31;2.28;;;0.30;;
42018;SDS011;27703;51.980;5.848;2022-08-03T01:13:19;2.67;;;0.30;;
42018;SDS011;27703;51.980;5.848;2022-08-03T01:16:02;1.70;;;0.30;;
42018;SDS011;27703;51.980;5.848;2022-08-03T01:18:37;1.90;;;0.30;;
42018;SDS011;27703;51.980;5.848;2022-08-03T01:21:11;1.20;;;0.30;;
42018;SDS011;27703;51.980;5.848;2022-08-03T01:29:20;1.80;;;0.35;;
42018;SDS011;27703;51.980;5.848;2022-08-03T01:32:11;2.28;;;0.30;;
42018;SDS011;27703;51.980;5.848;2022-08-03T01:34:42;0.98;;;0.22;;
42018;SDS011;27703;51.980;5.848;2022-08-03T01:37:12;3.80;;;0.20;;
42018;SDS011;27703;51.980;5.848;2022-08-03T01:39:42;4.45;;;0.30;;
42018;SDS011;27703;51.980;5.848;2022-08-03T01:42:09;1.58;;;0.32;;
42018;SDS011;27703;51.980;5.848;2022-08-03T01:44:36;3.92;;;0.45;;
42018;SDS011;27703;51.980;5.848;2022-08-03T01:47:04;1.52;;;0.20;;
42018;SDS011;27703;51.980;5.848;2022-08-03T01:49:34;3.95;;;0.40;;
42018;SDS011;27703;51.980;5.848;2022-08-03T01:52:07;4.80;;;0.35;;
42018;SDS011;27703;51.980;5.848;2022-08-03T01:54:35;3.22;;;0.28;;
42018;SDS011;27703;51.980;5.848;2022-08-03T01:57:04;2.13;;;0.28;;
42018;SDS011;27703;51.980;5.848;2022-08-03T01:59:31;0.98;;;0.30;;
42018;SDS011;27703;51.980;5.848;2022-08-03T02:01:59;1.48;;;0.30;;
42018;SDS011;27703;51.980;5.848;2022-08-03T02:04:25;1.48;;;0.40;;
42018;SDS011;27703;51.980;5.848;2022-08-03T02:06:52;0.95;;;0.30;;
42018;SDS011;27703;51.980;5.848;2022-08-03T02:09:19;3.42;;;0.30;;
42018;SDS011;27703;51.980;5.848;2022-08-03T02:11:46;3.10;;;0.35;;
42018;SDS011;27703;51.980;5.848;2022-08-03T02:14:12;3.00;;;0.30;;
42018;SDS011;27703;51.980;5.848;2022-08-03T02:16:39;2.05;;;0.47;;
42018;SDS011;27703;51.980;5.848;2022-08-03T02:19:06;1.27;;;0.30;;
42018;SDS011;27703;51.980;5.848;2022-08-03T02:21:35;2.80;;;0.40;;
42018;SDS011;27703;51.980;5.848;2022-08-03T02:24:01;1.77;;;0.30;;
42018;SDS011;27703;51.980;5.848;2022-08-03T02:26:28;1.15;;;0.20;;
42018;SDS011;27703;51.980;5.848;2022-08-03T02:28:55;2.47;;;0.22;;
42018;SDS011;27703;51.980;5.848;2022-08-03T02:31:26;2.47;;;0.30;;
42018;SDS011;27703;51.980;5.848;2022-08-03T02:33:58;3.22;;;0.30;;
42018;SDS011;27703;51.980;5.848;2022-08-03T02:36:27;1.40;;;0.30;;
42018;SDS011;27703;51.980;5.848;2022-08-03T02:38:55;1.73;;;0.30;;
42018;SDS011;27703;51.980;5.848;2022-08-03T02:41:23;0.60;;;0.20;;
42018;SDS011;27703;51.980;5.848;2022-08-03T02:43:54;1.77;;;0.40;;
42018;SDS011;27703;51.980;5.848;2022-08-03T02:46:24;3.08;;;0.30;;
42018;SDS011;27703;51.980;5.848;2022-08-03T02:48:54;2.17;;;0.35;;
42018;SDS011;27703;51.980;5.848;2022-08-03T02:51:20;3.63;;;0.50;;
42018;SDS011;27703;51.980;5.848;2022-08-03T02:53:47;3.90;;;0.30;;
42018;SDS011;27703;51.980;5.848;2022-08-03T02:56:14;2.53;;;0.40;;
42018;SDS011;27703;51.980;5.848;2022-08-03T02:58:42;4.07;;;0.40;;
42018;SDS011;27703;51.980;5.848;2022-08-03T03:01:09;3.45;;;0.30;;
42018;SDS011;27703;51.980;5.848;2022-08-03T03:03:36;3.42;;;0.50;;
42018;SDS011;27703;51.980;5.848;2022-08-03T03:06:04;1.42;;;0.20;;
42018;SDS011;27703;51.980;5.848;2022-08-03T03:08:30;1.92;;;0.40;;
42018;SDS011;27703;51.980;5.848;2022-08-03T03:10:57;2.33;;;0.30;;
42018;SDS011;27703;51.980;5.848;2022-08-03T03:13:24;1.20;;;0.40;;
42018;SDS011;27703;51.980;5.848;2022-08-03T03:15:52;1.35;;;0.32;;
42018;SDS011;27703;51.980;5.848;2022-08-03T03:18:20;1.58;;;0.35;;
42018;SDS011;27703;51.980;5.848;2022-08-03T03:20:47;2.33;;;0.22;;
42018;SDS011;27703;51.980;5.848;2022-08-03T03:23:15;3.80;;;0.30;;
42018;SDS011;27703;51.980;5.848;2022-08-03T03:25:41;1.95;;;0.28;;
42018;SDS011;27703;51.980;5.848;2022-08-03T03:28:08;1.25;;;0.80;;
42018;SDS011;27703;51.980;5.848;2022-08-03T03:30:35;3.38;;;0.50;;
42018;SDS011;27703;51.980;5.848;2022-08-03T03:33:00;3.30;;;0.40;;
42018;SDS011;27703;51.980;5.848;2022-08-03T03:35:26;1.23;;;0.20;;
42018;SDS011;27703;51.980;5.848;2022-08-03T03:37:52;2.08;;;0.30;;
42018;SDS011;27703;51.980;5.848;2022-08-03T03:40:18;2.45;;;0.50;;
42018;SDS011;27703;51.980;5.848;2022-08-03T03:42:45;0.88;;;0.30;;
42018;SDS011;27703;51.980;5.848;2022-08-03T03:45:10;1.42;;;0.20;;
42018;SDS011;27703;51.980;5.848;2022-08-03T03:47:37;1.33;;;0.30;;
42018;SDS011;27703;51.980;5.848;2022-08-03T03:50:03;2.47;;;0.30;;
42018;SDS011;27703;51.980;5.848;2022-08-03T03:52:30;3.78;;;0.40;;
42018;SDS011;27703;51.980;5.848;2022-08-03T03:54:56;2.17;;;0.40;;
42018;SDS011;27703;51.980;5.848;2022-08-03T03:57:22;2.13;;;0.30;;
42018;SDS011;27703;51.980;5.848;2022-08-03T03:59:47;1.90;;;0.40;;
42018;SDS011;27703;51.980;5.848;2022-08-03T04:02:13;1.27;;;0.30;;
42018;SDS011;27703;51.980;5.848;2022-08-03T04:04:38;0.98;;;0.20;;
42018;SDS011;27703;51.980;5.848;2022-08-03T04:07:23;3.95;;;0.93;;
42018;SDS011;27703;51.980;5.848;2022-08-03T04:10:13;1.58;;;0.50;;
42018;SDS011;27703;51.980;5.848;2022-08-03T04:13:01;2.53;;;0.40;;
42018;SDS011;27703;51.980;5.848;2022-08-03T04:15:30;1.80;;;0.40;;
42018;SDS011;27703;51.980;5.848;2022-08-03T04:17:57;2.60;;;0.30;;
42018;SDS011;27703;51.980;5.848;2022-08-03T04:20:25;1.42;;;0.30;;
42018;SDS011;27703;51.980;5.848;2022-08-03T04:22:53;2.35;;;0.40;;
42018;SDS011;27703;51.980;5.848;2022-08-03T04:25:20;1.95;;;0.38;;
42018;SDS011;27703;51.980;5.848;2022-08-03T04:27:49;3.13;;;0.40;;
42018;SDS011;27703;51.980;5.848;2022-08-03T04:30:16;3.72;;;0.40;;
42018;SDS011;27703;51.980;5.848;2022-08-03T04:32:43;2.25;;;0.40;;
42018;SDS011;27703;51.980;5.848;2022-08-03T04:35:14;1.77;;;0.68;;
42018;SDS011;27703;51.980;5.848;2022-08-03T04:37:41;1.73;;;0.40;;
42018;SDS011;27703;51.980;5.848;2022-08-03T04:42:43;1.55;;;0.40;;
42018;SDS011;27703;51.980;5.848;2022-08-03T04:45:10;3.80;;;0.50;;
42018;SDS011;27703;51.980;5.848;2022-08-03T04:47:37;3.85;;;0.45;;
42018;SDS011;27703;51.980;5.848;2022-08-03T04:50:04;1.65;;;0.70;;
42018;SDS011;27703;51.980;5.848;2022-08-03T04:52:30;3.40;;;0.47;;
42018;SDS011;27703;51.980;5.848;2022-08-03T04:54:56;1.50;;;0.60;;
42018;SDS011;27703;51.980;5.848;2022-08-03T04:57:22;3.63;;;0.60;;
42018;SDS011;27703;51.980;5.848;2022-08-03T04:59:47;4.30;;;0.70;;
42018;SDS011;27703;51.980;5.848;2022-08-03T05:02:16;6.05;;;1.02;;
42018;SDS011;27703;51.980;5.848;2022-08-03T05:04:42;2.35;;;0.75;;
42018;SDS011;27703;51.980;5.848;2022-08-03T05:07:10;2.65;;;0.63;;
42018;SDS011;27703;51.980;5.848;2022-08-03T05:09:36;1.58;;;0.60;;
42018;SDS011;27703;51.980;5.848;2022-08-03T05:12:02;2.28;;;0.60;;
42018;SDS011;27703;51.980;5.848;2022-08-03T05:14:28;3.53;;;0.60;;
42018;SDS011;27703;51.980;5.848;2022-08-03T05:16:54;2.85;;;0.60;;
42018;SDS011;27703;51.980;5.848;2022-08-03T05:19:19;4.68;;;0.80;;
42018;SDS011;27703;51.980;5.848;2022-08-03T05:21:45;2.33;;;0.60;;
42018;SDS011;27703;51.980;5.848;2022-08-03T05:24:10;3.22;;;0.88;;
42018;SDS011;27703;51.980;5.848;2022-08-03T05:26:36;3.33;;;0.70;;
42018;SDS011;27703;51.980;5.848;2022-08-03T05:29:01;3.95;;;0.70;;
42018;SDS011;27703;51.980;5.848;2022-08-03T05:31:28;4.18;;;0.70;;
42018;SDS011;27703;51.980;5.848;2022-08-03T05:33:54;1.50;;;0.60;;
42018;SDS011;27703;51.980;5.848;2022-08-03T05:36:21;4.15;;;0.65;;
42018;SDS011;27703;51.980;5.848;2022-08-03T05:38:47;5.38;;;0.95;;
42018;SDS011;27703;51.980;5.848;2022-08-03T05:41:12;7.70;;;1.13;;
42018;SDS011;27703;51.980;5.848;2022-08-03T05:43:38;2.72;;;0.80;;
42018;SDS011;27703;51.980;5.848;2022-08-03T05:46:03;2.80;;;0.80;;
42018;SDS011;27703;51.980;5.848;2022-08-03T05:48:29;4.70;;;1.00;;
42018;SDS011;27703;51.980;5.848;2022-08-03T05:50:54;7.28;;;1.33;;
42018;SDS011;27703;51.980;5.848;2022-08-03T05:53:20;9.82;;;1.45;;
42018;SDS011;27703;51.980;5.848;2022-08-03T05:55:45;7.30;;;1.42;;
42018;SDS011;27703;51.980;5.848;2022-08-03T05:58:11;7.00;;;1.50;;
42018;SDS011;27703;51.980;5.848;2022-08-03T06:00:37;1.92;;;0.95;;
42018;SDS011;27703;51.980;5.848;2022-08-03T06:03:03;4.78;;;1.05;;
42018;SDS011;27703;51.980;5.848;2022-08-03T06:05:28;4.85;;;1.80;;
42018;SDS011;27703;51.980;5.848;2022-08-03T06:07:54;7.70;;;1.95;;
42018;SDS011;27703;51.980;5.848;2022-08-03T06:10:19;3.63;;;1.45;;
42018;SDS011;27703;51.980;5.848;2022-08-03T06:12:46;3.42;;;0.90;;
42018;SDS011;27703;51.980;5.848;2022-08-03T06:15:13;7.28;;;1.58;;
42018;SDS011;27703;51.980;5.848;2022-08-03T06:17:49;4.53;;;1.25;;
42018;SDS011;27703;51.980;5.848;2022-08-03T06:20:17;6.97;;;2.13;;
42018;SDS011;27703;51.980;5.848;2022-08-03T06:22:44;4.30;;;0.95;;
42018;SDS011;27703;51.980;5.848;2022-08-03T06:25:10;6.40;;;1.17;;
42018;SDS011;27703;51.980;5.848;2022-08-03T06:27:35;3.13;;;0.90;;
42018;SDS011;27703;51.980;5.848;2022-08-03T06:30:07;3.65;;;0.98;;
42018;SDS011;27703;51.980;5.848;2022-08-03T06:32:37;5.18;;;0.93;;
42018;SDS011;27703;51.980;5.848;2022-08-03T06:35:06;7.35;;;0.77;;
42018;SDS011;27703;51.980;5.848;2022-08-03T06:37:46;7.25;;;1.55;;
42018;SDS011;27703;51.980;5.848;2022-08-03T06:40:14;6.85;;;1.75;;
42018;SDS011;27703;51.980;5.848;2022-08-03T06:42:41;6.70;;;1.23;;
42018;SDS011;27703;51.980;5.848;2022-08-03T06:45:08;6.50;;;2.10;;
42018;SDS011;27703;51.980;5.848;2022-08-03T06:47:34;7.38;;;1.55;;
42018;SDS011;27703;51.980;5.848;2022-08-03T06:50:00;4.43;;;1.52;;
42018;SDS011;27703;51.980;5.848;2022-08-03T06:52:27;3.95;;;1.23;;
42018;SDS011;27703;51.980;5.848;2022-08-03T06:54:53;4.28;;;1.02;;
42018;SDS011;27703;51.980;5.848;2022-08-03T06:57:19;6.85;;;2.00;;
42018;SDS011;27703;51.980;5.848;2022-08-03T06:59:44;5.88;;;1.33;;
42018;SDS011;27703;51.980;5.848;2022-08-03T07:02:10;9.63;;;1.98;;
42018;SDS011;27703;51.980;5.848;2022-08-03T07:04:36;6.57;;;1.38;;
42018;SDS011;27703;51.980;5.848;2022-08-03T07:07:01;10.48;;;1.67;;
42018;SDS011;27703;51.980;5.848;2022-08-03T07:09:27;9.85;;;1.60;;
42018;SDS011;27703;51.980;5.848;2022-08-03T07:11:53;10.80;;;1.65;;
42018;SDS011;27703;51.980;5.848;2022-08-03T07:14:19;8.40;;;1.25;;
42018;SDS011;27703;51.980;5.848;2022-08-03T07:16:45;10.00;;;1.40;;
42018;SDS011;27703;51.980;5.848;2022-08-03T07:19:10;10.70;;;1.58;;
42018;SDS011;27703;51.980;5.848;2022-08-03T07:21:36;8.85;;;1.55;;
42018;SDS011;27703;51.980;5.848;2022-08-03T07:24:01;12.68;;;1.23;;
42018;SDS011;27703;51.980;5.848;2022-08-03T07:26:27;7.82;;;0.90;;
42018;SDS011;27703;51.980;5.848;2022-08-03T07:28:53;11.15;;;1.70;;
42018;SDS011;27703;51.980;5.848;2022-08-03T07:31:19;7.70;;;0.93;;
42018;SDS011;27703;51.980;5.848;2022-08-03T07:33:44;11.68;;;1.90;;
42018;SDS011;27703;51.980;5.848;2022-08-03T07:36:10;10.38;;;1.27;;
42018;SDS011;27703;51.980;5.848;2022-08-03T07:38:35;10.88;;;1.38;;
42018;SDS011;27703;51.980;5.848;2022-08-03T07:41:01;9.52;;;0.98;;
42018;SDS011;27703;51.980;5.848;2022-08-03T07:43:27;8.80;;;0.90;;
42018;SDS011;27703;51.980;5.848;2022-08-03T07:45:52;7.95;;;1.00;;
42018;SDS011;27703;51.980;5.848;2022-08-03T07:48:18;8.48;;;0.77;;
42018;SDS011;27703;51.980;5.848;2022-08-03T07:50:43;9.45;;;0.77;;
42018;SDS011;27703;51.980;5.848;2022-08-03T07:53:10;7.70;;;0.80;;
42018;SDS011;27703;51.980;5.848;2022-08-03T07:55:35;8.25;;;1.00;;
42018;SDS011;27703;51.980;5.848;2022-08-03T07:58:02;7.10;;;0.55;;
42018;SDS011;27703;51.980;5.848;2022-08-03T08:00:29;7.32;;;1.00;;
42018;SDS011;27703;51.980;5.848;2022-08-03T08:02:55;8.52;;;1.08;;
42018;SDS011;27703;51.980;5.848;2022-08-03T08:05:20;9.43;;;1.35;;
42018;SDS011;27703;51.980;5.848;2022-08-03T08:07:46;6.20;;;1.27;;
42018;SDS011;27703;51.980;5.848;2022-08-03T08:10:11;6.35;;;0.70;;
42018;SDS011;27703;51.980;5.848;2022-08-03T08:12:38;9.13;;;0.90;;
42018;SDS011;27703;51.980;5.848;2022-08-03T08:15:04;12.23;;;1.05;;
42018;SDS011;27703;51.980;5.848;2022-08-03T08:17:30;6.43;;;1.55;;
42018;SDS011;27703;51.980;5.848;2022-08-03T08:20:04;15.43;;;1.25;;
42018;SDS011;27703;51.980;5.848;2022-08-03T08:22:30;7.97;;;0.75;;
42018;SDS011;27703;51.980;5.848;2022-08-03T08:24:56;6.97;;;0.85;;
42018;SDS011;27703;51.980;5.848;2022-08-03T08:27:22;9.90;;;0.60;;
42018;SDS011;27703;51.980;5.848;2022-08-03T08:29:48;6.30;;;0.77;;
42018;SDS011;27703;51.980;5.848;2022-08-03T08:32:13;13.57;;;1.30;;
42018;SDS011;27703;51.980;5.848;2022-08-03T08:34:40;8.57;;;0.70;;
42018;SDS011;27703;51.980;5.848;2022-08-03T08:37:05;11.23;;;0.90;;
42018;SDS011;27703;51.980;5.848;2022-08-03T08:39:31;8.05;;;1.02;;
42018;SDS011;27703;51.980;5.848;2022-08-03T08:41:56;9.45;;;1.17;;
42018;SDS011;27703;51.980;5.848;2022-08-03T08:44:22;14.05;;;1.33;;
42018;SDS011;27703;51.980;5.848;2022-08-03T08:46:48;12.75;;;1.88;;
42018;SDS011;27703;51.980;5.848;2022-08-03T08:49:15;12.30;;;0.95;;
42018;SDS011;27703;51.980;5.848;2022-08-03T08:51:46;10.05;;;1.10;;
42018;SDS011;27703;51.980;5.848;2022-08-03T08:54:15;5.78;;;0.73;;
42018;SDS011;27703;51.980;5.848;2022-08-03T08:56:44;7.30;;;0.90;;
42018;SDS011;27703;51.980;5.848;2022-08-03T08:59:10;12.25;;;0.90;;
42018;SDS011;27703;51.980;5.848;2022-08-03T09:01:37;9.68;;;0.90;;
42018;SDS011;27703;51.980;5.848;2022-08-03T09:04:05;9.77;;;0.80;;
42018;SDS011;27703;51.980;5.848;2022-08-03T09:06:31;9.13;;;1.23;;
42018;SDS011;27703;51.980;5.848;2022-08-03T09:08:56;12.77;;;1.27;;
42018;SDS011;27703;51.980;5.848;2022-08-03T09:11:22;12.43;;;1.08;;
42018;SDS011;27703;51.980;5.848;2022-08-03T09:13:48;14.43;;;1.05;;
42018;SDS011;27703;51.980;5.848;2022-08-03T09:16:15;6.25;;;0.55;;
42018;SDS011;27703;51.980;5.848;2022-08-03T09:18:48;7.68;;;0.85;;
42018;SDS011;27703;51.980;5.848;2022-08-03T09:21:19;8.10;;;0.90;;
42018;SDS011;27703;51.980;5.848;2022-08-03T09:26:12;12.32;;;1.15;;
42018;SDS011;27703;51.980;5.848;2022-08-03T09:28:44;10.63;;;0.80;;
42018;SDS011;27703;51.980;5.848;2022-08-03T09:31:09;12.70;;;0.73;;
42018;SDS011;27703;51.980;5.848;2022-08-03T09:33:45;12.80;;;0.82;;
42018;SDS011;27703;51.980;5.848;2022-08-03T09:36:32;10.88;;;0.82;;
42018;SDS011;27703;51.980;5.848;2022-08-03T09:39:07;10.18;;;1.08;;
42018;SDS011;27703;51.980;5.848;2022-08-03T09:41:38;3.35;;;0.65;;
42018;SDS011;27703;51.980;5.848;2022-08-03T09:44:06;10.32;;;1.00;;
42018;SDS011;27703;51.980;5.848;2022-08-03T09:46:46;11.00;;;0.80;;
42018;SDS011;27703;51.980;5.848;2022-08-03T09:49:13;12.07;;;1.05;;
42018;SDS011;27703;51.980;5.848;2022-08-03T09:51:39;14.63;;;1.20;;
42018;SDS011;27703;51.980;5.848;2022-08-03T09:54:05;9.93;;;1.25;;
42018;SDS011;27703;51.980;5.848;2022-08-03T09:56:41;8.98;;;0.77;;
42018;SDS011;27703;51.980;5.848;2022-08-03T09:59:09;8.32;;;0.88;;
42018;SDS011;27703;51.980;5.848;2022-08-03T10:01:36;17.15;;;1.77;;
42018;SDS011;27703;51.980;5.848;2022-08-03T10:04:05;7.80;;;1.08;;
42018;SDS011;27703;51.980;5.848;2022-08-03T10:06:36;11.23;;;1.13;;
42018;SDS011;27703;51.980;5.848;2022-08-03T10:09:09;6.15;;;0.52;;
42018;SDS011;27703;51.980;5.848;2022-08-03T10:11:37;8.85;;;1.02;;
42018;SDS011;27703;51.980;5.848;2022-08-03T10:14:04;7.97;;;0.82;;
42018;SDS011;27703;51.980;5.848;2022-08-03T10:16:35;8.85;;;0.82;;
42018;SDS011;27703;51.980;5.848;2022-08-03T10:21:32;9.35;;;0.90;;
42018;SDS011;27703;51.980;5.848;2022-08-03T10:24:01;8.02;;;1.05;;
42018;SDS011;27703;51.980;5.848;2022-08-03T10:26:29;13.07;;;1.25;;
42018;SDS011;27703;51.980;5.848;2022-08-03T10:31:30;10.80;;;1.05;;
42018;SDS011;27703;51.980;5.848;2022-08-03T10:34:01;13.35;;;0.85;;
42018;SDS011;27703;51.980;5.848;2022-08-03T10:36:30;7.20;;;0.77;;
42018;SDS011;27703;51.980;5.848;2022-08-03T10:38:59;11.57;;;0.98;;
42018;SDS011;27703;51.980;5.848;2022-08-03T10:41:25;7.13;;;0.63;;
42018;SDS011;27703;51.980;5.848;2022-08-03T10:43:58;10.88;;;1.00;;
42018;SDS011;27703;51.980;5.848;2022-08-03T10:46:29;9.70;;;0.82;;
42018;SDS011;27703;51.980;5.848;2022-08-03T10:48:57;10.00;;;0.80;;
42018;SDS011;27703;51.980;5.848;2022-08-03T10:51:23;11.15;;;1.02;;
42018;SDS011;27703;51.980;5.848;2022-08-03T10:53:54;9.50;;;0.63;;
42018;SDS011;27703;51.980;5.848;2022-08-03T10:59:19;15.85;;;1.17;;
42018;SDS011;27703;51.980;5.848;2022-08-03T11:02:10;7.97;;;0.95;;
42018;SDS011;27703;51.980;5.848;2022-08-03T11:04:38;10.48;;;0.93;;
42018;SDS011;27703;51.980;5.848;2022-08-03T11:07:23;10.15;;;1.00;;
42018;SDS011;27703;51.980;5.848;2022-08-03T11:09:52;6.07;;;0.68;;
42018;SDS011;27703;51.980;5.848;2022-08-03T11:14:55;7.97;;;0.90;;
42018;SDS011;27703;51.980;5.848;2022-08-03T11:17:22;11.90;;;0.75;;
42018;SDS011;27703;51.980;5.848;2022-08-03T11:19:49;9.70;;;0.85;;
42018;SDS011;27703;51.980;5.848;2022-08-03T11:22:16;8.40;;;0.40;;
42018;SDS011;27703;51.980;5.848;2022-08-03T11:40:33;9.15;;;0.70;;
42018;SDS011;27703;51.980;5.848;2022-08-03T11:45:55;8.55;;;0.73;;
42018;SDS011;27703;51.980;5.848;2022-08-03T11:48:21;8.02;;;1.00;;
42018;SDS011;27703;51.980;5.848;2022-08-03T11:50:47;9.60;;;0.52;;
42018;SDS011;27703;51.980;5.848;2022-08-03T11:53:14;8.80;;;0.90;;
42018;SDS011;27703;51.980;5.848;2022-08-03T11:55:42;9.38;;;0.60;;
42018;SDS011;27703;51.980;5.848;2022-08-03T11:58:21;8.40;;;0.80;;
42018;SDS011;27703;51.980;5.848;2022-08-03T12:00:48;4.30;;;0.82;;
42018;SDS011;27703;51.980;5.848;2022-08-03T12:03:15;7.05;;;0.70;;
42018;SDS011;27703;51.980;5.848;2022-08-03T12:08:15;4.63;;;0.60;;
42018;SDS011;27703;51.980;5.848;2022-08-03T12:10:46;9.77;;;0.80;;
42018;SDS011;27703;51.980;5.848;2022-08-03T12:13:14;3.80;;;0.40;;
42018;SDS011;27703;51.980;5.848;2022-08-03T12:15:40;11.23;;;0.50;;
42018;SDS011;27703;51.980;5.848;2022-08-03T12:18:13;7.40;;;0.43;;
42018;SDS011;27703;51.980;5.848;2022-08-03T12:20:41;2.60;;;0.40;;
42018;SDS011;27703;51.980;5.848;2022-08-03T12:23:08;9.70;;;0.63;;
42018;SDS011;27703;51.980;5.848;2022-08-03T12:25:35;6.72;;;0.57;;
42018;SDS011;27703;51.980;5.848;2022-08-03T12:28:10;10.57;;;0.73;;
42018;SDS011;27703;51.980;5.848;2022-08-03T12:30:37;6.45;;;0.50;;
42018;SDS011;27703;51.980;5.848;2022-08-03T12:35:39;8.27;;;0.40;;
42018;SDS011;27703;51.980;5.848;2022-08-03T12:38:05;4.20;;;0.70;;
42018;SDS011;27703;51.980;5.848;2022-08-03T12:40:31;5.72;;;0.52;;
42018;SDS011;27703;51.980;5.848;2022-08-03T12:42:56;7.30;;;0.55;;
42018;SDS011;27703;51.980;5.848;2022-08-03T12:45:23;6.80;;;0.60;;
42018;SDS011;27703;51.980;5.848;2022-08-03T12:47:58;10.95;;;0.55;;
42018;SDS011;27703;51.980;5.848;2022-08-03T12:50:26;5.45;;;0.57;;
42018;SDS011;27703;51.980;5.848;2022-08-03T12:52:56;9.80;;;0.90;;
42018;SDS011;27703;51.980;5.848;2022-08-03T12:55:24;7.43;;;0.60;;
42018;SDS011;27703;51.980;5.848;2022-08-03T12:57:57;5.95;;;0.50;;
42018;SDS011;27703;51.980;5.848;2022-08-03T13:00:27;7.77;;;0.50;;
42018;SDS011;27703;51.980;5.848;2022-08-03T13:02:57;5.05;;;0.50;;
42018;SDS011;27703;51.980;5.848;2022-08-03T13:05:23;2.15;;;0.20;;
42018;SDS011;27703;51.980;5.848;2022-08-03T13:07:49;2.97;;;0.30;;
42018;SDS011;27703;51.980;5.848;2022-08-03T13:10:26;6.82;;;0.85;;
42018;SDS011;27703;51.980;5.848;2022-08-03T13:12:55;2.25;;;0.22;;
42018;SDS011;27703;51.980;5.848;2022-08-03T13:15:27;4.03;;;0.40;;
42018;SDS011;27703;51.980;5.848;2022-08-03T13:17:54;5.85;;;0.38;;
42018;SDS011;27703;51.980;5.848;2022-08-03T13:20:20;3.97;;;0.60;;
42018;SDS011;27703;51.980;5.848;2022-08-03T13:22:49;2.65;;;0.52;;
42018;SDS011;27703;51.980;5.848;2022-08-03T13:25:15;4.63;;;0.32;;
42018;SDS011;27703;51.980;5.848;2022-08-03T13:27:41;2.30;;;0.45;;
42018;SDS011;27703;51.980;5.848;2022-08-03T13:30:07;5.28;;;0.40;;
42018;SDS011;27703;51.980;5.848;2022-08-03T13:32:34;1.95;;;0.20;;
42018;SDS011;27703;51.980;5.848;2022-08-03T13:35:00;0.93;;;0.20;;
42018;SDS011;27703;51.980;5.848;2022-08-03T13:37:29;3.17;;;0.30;;
42018;SDS011;27703;51.980;5.848;2022-08-03T13:39:56;0.95;;;0.32;;
42018;SDS011;27703;51.980;5.848;2022-08-03T13:42:21;2.30;;;0.57;;
42018;SDS011;27703;51.980;5.848;2022-08-03T13:44:47;2.85;;;0.20;;
42018;SDS011;27703;51.980;5.848;2022-08-03T13:47:13;1.42;;;0.20;;
42018;SDS011;27703;51.980;5.848;2022-08-03T13:49:38;2.33;;;0.17;;
42018;SDS011;27703;51.980;5.848;2022-08-03T13:52:04;3.80;;;0.47;;
42018;SDS011;27703;51.980;5.848;2022-08-03T13:54:29;1.67;;;0.40;;
42018;SDS011;27703;51.980;5.848;2022-08-03T13:56:56;4.47;;;0.85;;
42018;SDS011;27703;51.980;5.848;2022-08-03T13:59:22;4.05;;;0.40;;
42018;SDS011;27703;51.980;5.848;2022-08-03T14:01:49;2.38;;;0.30;;
42018;SDS011;27703;51.980;5.848;2022-08-03T14:04:16;2.10;;;0.30;;
42018;SDS011;27703;51.980;5.848;2022-08-03T14:06:42;0.40;;;0.10;;
42018;SDS011;27703;51.980;5.848;2022-08-03T14:09:09;2.65;;;0.20;;
42018;SDS011;27703;51.980;5.848;2022-08-03T14:11:35;2.10;;;0.15;;
42018;SDS011;27703;51.980;5.848;2022-08-03T14:14:01;1.17;;;0.30;;
42018;SDS011;27703;51.980;5.848;2022-08-03T14:16:26;1.60;;;0.20;;
42018;SDS011;27703;51.980;5.848;2022-08-03T14:18:52;2.13;;;0.40;;
42018;SDS011;27703;51.980;5.848;2022-08-03T14:21:17;3.85;;;0.40;;
42018;SDS011;27703;51.980;5.848;2022-08-03T14:23:43;2.85;;;0.32;;
42018;SDS011;27703;51.980;5.848;2022-08-03T14:26:08;2.92;;;0.22;;
42018;SDS011;27703;51.980;5.848;2022-08-03T14:28:36;1.40;;;0.30;;
42018;SDS011;27703;51.980;5.848;2022-08-03T14:31:02;1.50;;;0.20;;
42018;SDS011;27703;51.980;5.848;2022-08-03T14:33:28;1.15;;;0.10;;
42018;SDS011;27703;51.980;5.848;2022-08-03T14:35:54;0.52;;;0.13;;
42018;SDS011;27703;51.980;5.848;2022-08-03T14:38:20;2.50;;;0.30;;
42018;SDS011;27703;51.980;5.848;2022-08-03T14:40:46;1.80;;;0.30;;
42018;SDS011;27703;51.980;5.848;2022-08-03T14:43:12;5.63;;;0.30;;
42018;SDS011;27703;51.980;5.848;2022-08-03T14:45:39;1.85;;;0.28;;
42018;SDS011;27703;51.980;5.848;2022-08-03T14:48:05;1.88;;;0.20;;
42018;SDS011;27703;51.980;5.848;2022-08-03T14:50:31;3.38;;;0.30;;
42018;SDS011;27703;51.980;5.848;2022-08-03T14:52:56;0.98;;;0.20;;
42018;SDS011;27703;51.980;5.848;2022-08-03T14:55:22;1.35;;;0.30;;
42018;SDS011;27703;51.980;5.848;2022-08-03T14:57:48;2.35;;;0.30;;
42018;SDS011;27703;51.980;5.848;2022-08-03T15:00:14;0.60;;;0.20;;
42018;SDS011;27703;51.980;5.848;2022-08-03T15:02:39;1.25;;;0.20;;
42018;SDS011;27703;51.980;5.848;2022-08-03T15:05:05;1.10;;;0.10;;
42018;SDS011;27703;51.980;5.848;2022-08-03T15:07:31;1.75;;;0.20;;
42018;SDS011;27703;51.980;5.848;2022-08-03T15:09:57;1.80;;;0.30;;
42018;SDS011;27703;51.980;5.848;2022-08-03T15:12:23;3.10;;;0.28;;
42018;SDS011;27703;51.980;5.848;2022-08-03T15:14:49;4.13;;;0.20;;
42018;SDS011;27703;51.980;5.848;2022-08-03T15:17:15;2.58;;;0.20;;
42018;SDS011;27703;51.980;5.848;2022-08-03T15:19:41;0.65;;;0.30;;
42018;SDS011;27703;51.980;5.848;2022-08-03T15:22:06;1.33;;;0.25;;
42018;SDS011;27703;51.980;5.848;2022-08-03T15:24:32;3.25;;;0.20;;
42018;SDS011;27703;51.980;5.848;2022-08-03T15:26:57;2.50;;;0.20;;
42018;SDS011;27703;51.980;5.848;2022-08-03T15:29:23;1.75;;;0.20;;
42018;SDS011;27703;51.980;5.848;2022-08-03T15:31:48;0.95;;;0.20;;
42018;SDS011;27703;51.980;5.848;2022-08-03T15:34:14;0.63;;;0.10;;
42018;SDS011;27703;51.980;5.848;2022-08-03T15:36:39;2.75;;;0.20;;